Time;durP1;ratioP1;P1;durP2;ratioP2;P2;SDS_P1;SDS_P2;PMS_P1;PMS_P2;Temp;Humidity;BMP_temperature;BMP_pressure;BME280_temperature;BME280_humidity;BME280_pressure;Samples;Min_cycle;Max_cycle;Signal;HPM_P1;HPM_P2
2024/01/02 00:02:15;;;;;;;1.45;0.88;;;;;;;19.48;49.41;96232.53;20872472;28;20057;-57
2024/01/02 00:12:35;;;;;;;1.90;0.88;;;;;;;19.48;49.49;96229.84;20867476;28;20052;-57
2024/01/02 00:22:54;;;;;;;1.38;0.70;;;;;;;19.45;49.51;96233.19;20867256;28;20052;-58
2024/01/02 00:33:14;;;;;;;1.30;0.82;;;;;;;19.40;49.50;96229.94;20866749;28;20053;-57
2024/01/02 00:43:33;;;;;;;2.30;0.70;;;;;;;19.38;49.66;96229.47;20866524;28;20068;-58
2024/01/02 00:53:53;;;;;;;1.58;0.68;;;;;;;19.36;49.47;96219.78;20864799;28;20087;-57
2024/01/02 01:04:12;;;;;;;1.75;0.80;;;;;;;19.29;49.64;96227.69;20836948;28;20069;-58
2024/01/02 01:14:31;;;;;;;1.80;0.90;;;;;;;19.24;49.82;96230.59;20838010;28;20063;-58
2024/01/02 01:24:51;;;;;;;0.98;0.73;;;;;;;19.28;49.66;96214.50;20860606;28;20044;-58
2024/01/02 01:35:11;;;;;;;1.27;0.65;;;;;;;19.21;49.84;96209.66;20828253;28;20049;-58
2024/01/02 01:45:31;;;;;;;1.05;0.60;;;;;;;19.18;49.74;96204.94;20866291;28;20111;-58
2024/01/02 01:55:51;;;;;;;1.25;0.60;;;;;;;19.11;49.65;96189.28;20859979;28;20061;-58
2024/01/02 02:06:11;;;;;;;1.63;0.93;;;;;;;19.09;49.90;96169.94;20870696;28;20041;-58
2024/01/02 02:16:30;;;;;;;1.65;0.65;;;;;;;19.07;49.75;96172.19;20860445;28;20774;-58
2024/01/02 02:26:51;;;;;;;2.25;0.50;;;;;;;19.04;49.69;96177.47;20844322;28;20051;-58
2024/01/02 02:37:10;;;;;;;1.13;0.88;;;;;;;19.01;50.07;96176.22;20858548;28;20056;-58
2024/01/02 02:47:29;;;;;;;0.80;0.63;;;;;;;18.97;49.68;96183.41;20885388;28;20037;-58
2024/01/02 02:57:49;;;;;;;1.23;0.70;;;;;;;18.91;49.86;96173.94;20840239;28;20061;-57
2024/01/02 03:08:08;;;;;;;2.10;0.68;;;;;;;18.92;49.85;96154.72;20843271;28;20227;-57
2024/01/02 03:18:27;;;;;;;0.82;0.60;;;;;;;18.86;49.88;96158.78;20836737;28;20114;-59
2024/01/02 03:28:47;;;;;;;1.15;0.77;;;;;;;18.82;49.96;96135.47;20863954;28;20490;-58
2024/01/02 03:39:07;;;;;;;0.57;0.45;;;;;;;18.81;49.93;96120.41;20879745;28;20106;-59
2024/01/02 03:49:26;;;;;;;0.82;0.77;;;;;;;18.77;49.95;96109.47;20871838;28;20057;-58
2024/01/02 03:59:46;;;;;;;0.77;0.70;;;;;;;18.73;49.96;96084.28;20820419;28;20551;-58
2024/01/02 04:10:06;;;;;;;0.85;0.57;;;;;;;18.72;49.86;96071.94;20864851;28;20060;-58
2024/01/02 04:20:25;;;;;;;0.90;0.70;;;;;;;18.70;49.98;96041.78;20818202;28;20280;-58
2024/01/02 04:30:45;;;;;;;1.30;0.70;;;;;;;18.69;50.07;96038.28;20855718;28;20052;-59
2024/01/02 04:41:06;;;;;;;1.52;0.52;;;;;;;18.65;49.99;96031.22;20855231;28;20044;-58
2024/01/02 04:51:28;;;;;;;0.57;0.57;;;;;;;18.63;49.98;96015.38;20880514;28;20045;-58
2024/01/02 05:01:47;;;;;;;0.88;0.50;;;;;;;18.60;50.11;95999.84;20867879;28;20045;-58
2024/01/02 05:12:07;;;;;;;1.58;1.00;;;;;;;18.61;50.31;95987.94;20862576;28;20049;-57
2024/01/02 05:22:27;;;;;;;1.38;0.60;;;;;;;18.62;51.39;95978.75;20864789;28;20111;-58
2024/01/02 05:32:46;;;;;;;1.10;0.55;;;;;;;18.67;51.44;95969.63;20856576;28;20045;-57
2024/01/02 05:43:05;;;;;;;0.70;0.52;;;;;;;18.68;51.25;95960.38;20873534;28;20285;-58
2024/01/02 05:53:25;;;;;;;1.35;0.60;;;;;;;18.71;51.05;95938.13;20857459;28;20041;-58
2024/01/02 06:03:44;;;;;;;3.40;0.80;;;;;;;18.70;51.05;95918.47;20829069;28;20057;-58
2024/01/02 06:14:04;;;;;;;11.48;2.88;;;;;;;18.70;50.52;95894.19;20851532;28;20533;-57
2024/01/02 06:24:23;;;;;;;12.38;2.63;;;;;;;18.76;50.17;95890.13;20838066;28;20796;-57
2024/01/02 06:34:43;;;;;;;9.77;2.50;;;;;;;18.80;49.93;95886.75;20878397;28;20041;-57
2024/01/02 06:45:03;;;;;;;11.02;3.15;;;;;;;18.89;49.75;95890.13;20800487;28;20053;-57
2024/01/02 06:55:22;;;;;;;8.32;2.75;;;;;;;18.95;49.73;95856.38;20860531;28;20061;-57
2024/01/02 07:05:42;;;;;;;8.13;2.65;;;;;;;19.05;49.75;95839.72;20876618;28;20444;-57
2024/01/02 07:16:02;;;;;;;7.53;2.38;;;;;;;19.07;49.49;95813.16;20880922;28;20053;-57
2024/01/02 07:26:21;;;;;;;6.38;2.42;;;;;;;19.16;49.43;95815.69;20833084;28;20053;-57
2024/01/02 07:36:41;;;;;;;5.47;2.35;;;;;;;19.21;49.39;95811.94;20871027;28;20052;-57
2024/01/02 07:47:01;;;;;;;7.78;2.47;;;;;;;19.24;49.20;95792.34;20879214;28;20114;-57
2024/01/02 07:57:20;;;;;;;5.82;2.25;;;;;;;19.33;49.03;95764.06;20843268;28;20128;-57
2024/01/02 08:07:40;;;;;;;5.75;2.33;;;;;;;19.40;48.77;95747.25;20844024;28;20110;-57
2024/01/02 08:18:00;;;;;;;5.68;2.35;;;;;;;19.43;48.79;95748.47;20868949;28;20052;-57
2024/01/02 08:28:19;;;;;;;8.13;2.60;;;;;;;19.49;48.66;95720.84;20871101;28;20052;-57
2024/01/02 08:38:39;;;;;;;4.30;1.88;;;;;;;19.54;48.67;95712.50;20898577;28;20056;-57
2024/01/02 08:48:59;;;;;;;3.70;1.95;;;;;;;19.54;48.61;95706.28;20822479;28;20046;-57
2024/01/02 08:59:19;;;;;;;4.95;2.15;;;;;;;19.62;48.44;95683.72;20842104;28;20064;-57
2024/01/02 09:09:38;;;;;;;5.18;1.80;;;;;;;19.65;48.28;95671.41;20895095;28;20045;-57
2024/01/02 09:19:58;;;;;;;3.80;1.67;;;;;;;19.70;48.32;95668.47;20863519;28;20056;-57
2024/01/02 09:30:17;;;;;;;3.25;1.80;;;;;;;19.79;48.17;95655.53;20860598;28;20386;-57
2024/01/02 09:41:06;;;;;;;3.97;1.90;;;;;;;19.84;48.08;95636.34;20832365;28;20302;-57
2024/01/02 09:51:45;;;;;;;3.28;1.80;;;;;;;19.86;47.94;95633.31;20809427;28;20060;-57
2024/01/02 10:02:21;;;;;;;3.03;1.42;;;;;;;19.86;47.91;95620.56;20853102;28;20329;-57
2024/01/02 10:13:09;;;;;;;2.78;1.55;;;;;;;19.96;47.71;95616.53;20825046;28;20103;-57
2024/01/02 10:23:40;;;;;;;;;;;;;;;20.00;47.68;95582.22;20839907;28;20456;-57
2024/01/02 10:34:28;;;;;;;2.92;1.33;;;;;;;20.03;47.47;95570.72;20847610;28;19924;-57
2024/01/02 10:45:26;;;;;;;2.92;1.40;;;;;;;20.09;47.41;95554.97;20845698;28;20132;-57
2024/01/02 10:55:51;;;;;;;3.42;1.38;;;;;;;20.10;47.53;95529.50;20799650;28;20103;-57
2024/01/02 11:06:34;;;;;;;2.28;1.40;;;;;;;20.09;47.32;95498.19;20828573;28;20057;-57
2024/01/02 11:16:56;;;;;;;2.35;1.20;;;;;;;20.06;47.47;95488.13;20822710;28;20054;-57
2024/01/02 11:27:21;;;;;;;2.10;1.25;;;;;;;20.05;47.46;95456.81;20789789;28;20037;-57
2024/01/02 11:37:45;;;;;;;3.53;1.20;;;;;;;20.03;47.42;95435.56;20861487;28;20528;-57
2024/01/02 11:48:15;;;;;;;1.70;1.00;;;;;;;20.02;47.47;95417.00;20854425;28;20056;-57
2024/01/02 11:58:51;;;;;;;1.70;1.05;;;;;;;19.97;47.44;95395.66;20835343;28;20049;-58
2024/01/02 12:09:16;;;;;;;2.20;1.10;;;;;;;19.93;47.74;95353.13;20858619;28;20056;-57
2024/01/02 12:19:36;;;;;;;1.30;0.98;;;;;;;19.91;47.61;95350.00;20813727;28;20053;-57
2024/01/02 12:29:57;;;;;;;1.45;1.02;;;;;;;19.86;47.71;95338.72;20856849;28;20498;-56
2024/01/02 12:40:18;;;;;;;1.50;0.90;;;;;;;19.84;47.93;95314.00;20890606;28;20041;-57
2024/01/02 12:50:38;;;;;;;2.03;1.10;;;;;;;19.79;48.00;95298.84;20834830;28;20052;-57
2024/01/02 13:01:01;;;;;;;1.33;0.93;;;;;;;19.77;47.89;95290.31;20853653;28;20099;-57
2024/01/02 13:11:21;;;;;;;1.40;1.00;;;;;;;19.77;48.00;95284.91;20870093;28;20588;-57
2024/01/02 13:21:41;;;;;;;1.02;0.80;;;;;;;19.70;47.96;95273.97;20866888;28;20049;-57
2024/01/02 13:32:07;;;;;;;1.50;1.00;;;;;;;19.70;48.09;95271.28;20867555;28;20779;-57
2024/01/02 13:42:31;;;;;;;1.83;0.80;;;;;;;19.67;47.97;95261.97;20866414;28;20064;-57
2024/01/02 13:53:00;;;;;;;1.02;0.80;;;;;;;19.64;48.11;95257.28;20893402;28;20053;-57
2024/01/02 14:03:20;;;;;;;1.17;0.70;;;;;;;19.68;48.13;95262.72;20808171;28;20385;-57
2024/01/02 14:13:42;;;;;;;1.05;0.63;;;;;;;19.67;48.08;95266.59;20832117;28;20234;-57
2024/01/02 14:24:07;;;;;;;1.05;0.80;;;;;;;19.59;48.00;95254.88;20859654;28;20049;-57
2024/01/02 14:35:04;;;;;;;1.55;0.80;;;;;;;19.55;48.23;95246.72;20854991;28;20135;-57
2024/01/02 14:45:46;;;;;;;1.08;0.98;;;;;;;19.55;48.21;95244.03;20888944;28;20041;-57
2024/01/02 14:56:17;;;;;;;0.80;0.63;;;;;;;19.52;48.16;95222.34;20838327;28;20088;-57
2024/01/02 15:06:39;;;;;;;1.15;0.70;;;;;;;19.48;48.50;95227.72;20803891;28;20421;-57
2024/01/02 15:17:43;;;;;;;0.95;0.70;;;;;;;19.45;48.20;95223.03;20795722;28;20041;-57
2024/01/02 15:28:11;;;;;;;0.57;0.57;;;;;;;19.45;48.40;95211.44;20875832;28;20053;-57
2024/01/02 15:38:31;;;;;;;0.98;0.52;;;;;;;19.42;48.49;95226.44;20903127;28;20047;-57
2024/01/02 15:49:08;;;;;;;0.70;0.60;;;;;;;19.40;48.35;95223.31;20875331;28;20095;-57
2024/01/02 15:59:28;;;;;;;;;;;;;;;19.36;48.27;95217.84;20834147;28;20074;-57
2024/01/02 16:10:06;;;;;;;0.73;0.60;;;;;;;19.35;48.42;95218.25;20873455;28;19925;-57
2024/01/02 16:20:37;;;;;;;4.20;0.88;;;;;;;19.32;48.55;95213.53;20859794;28;20111;-57
2024/01/02 16:31:14;;;;;;;1.10;0.73;;;;;;;19.29;49.09;95198.09;20839075;28;20053;-57
2024/01/02 16:41:34;;;;;;;3.70;0.68;;;;;;;19.33;49.27;95196.22;20851286;28;20115;-55
2024/01/02 16:52:03;;;;;;;2.80;0.75;;;;;;;19.26;49.45;95188.78;20830263;28;20064;-61
2024/01/02 17:02:24;;;;;;;1.77;0.52;;;;;;;19.20;49.96;95165.91;20841948;28;20410;-56
2024/01/02 17:12:45;;;;;;;3.92;0.60;;;;;;;19.19;50.17;95156.28;20816435;28;20045;-59
2024/01/02 17:23:06;;;;;;;0.90;0.60;;;;;;;19.15;50.30;95150.00;20838610;28;20052;-57
2024/01/02 17:33:26;;;;;;;1.02;0.60;;;;;;;19.20;50.31;95128.13;20839504;28;20095;-55
2024/01/02 17:43:47;;;;;;;1.38;0.70;;;;;;;19.19;50.29;95115.78;20871668;28;20045;-56
2024/01/02 17:54:08;;;;;;;1.95;0.60;;;;;;;19.16;50.50;95111.09;20839352;28;20033;-56
2024/01/02 18:04:40;;;;;;;1.33;0.70;;;;;;;19.15;50.46;95091.44;20817147;28;20053;-56
2024/01/02 18:15:19;;;;;;;1.08;0.60;;;;;;;19.12;50.50;95094.06;20825362;28;20414;-56
2024/01/02 18:25:58;;;;;;;1.40;0.70;;;;;;;19.10;50.79;95075.53;20809510;28;20052;-54
2024/01/02 18:37:01;;;;;;;0.93;0.60;;;;;;;19.09;51.00;95055.09;20843201;28;20409;-51
2024/01/02 18:47:32;;;;;;;1.40;0.80;;;;;;;19.09;51.13;95041.59;20820195;28;20111;-52
2024/01/02 18:57:52;;;;;;;1.83;0.60;;;;;;;19.13;51.37;95015.44;20804722;28;20050;-51
2024/01/02 19:08:12;;;;;;;2.17;0.60;;;;;;;19.06;51.41;95015.31;20741332;28;20034;-55
2024/01/02 19:18:32;;;;;;;1.95;0.60;;;;;;;19.04;52.01;94998.72;20761850;28;20080;-57
2024/01/02 19:28:54;;;;;;;1.05;0.70;;;;;;;19.01;52.68;94975.16;20754381;28;20096;-56
2024/01/02 19:39:14;;;;;;;1.20;0.43;;;;;;;19.02;52.66;94965.16;20780468;28;20045;-51
2024/01/02 19:49:33;;;;;;;2.45;0.70;;;;;;;19.01;52.81;94950.84;20723727;28;20065;-55
2024/01/02 19:59:53;;;;;;;3.05;0.60;;;;;;;18.99;52.56;94928.09;20785953;28;20358;-51
2024/01/02 20:10:23;;;;;;;2.28;0.65;;;;;;;19.00;52.79;94918.88;20859997;28;20042;-56
2024/01/02 20:20:56;;;;;;;2.03;0.70;;;;;;;18.98;52.84;94899.56;20834527;28;20538;-55
2024/01/02 20:31:35;;;;;;;1.27;0.55;;;;;;;19.00;53.00;94891.88;20833301;28;20052;-56
2024/01/02 20:41:59;;;;;;;2.65;0.80;;;;;;;19.05;52.88;94873.44;20841926;28;20287;-58
2024/01/02 20:52:21;;;;;;;3.50;0.90;;;;;;;19.12;52.68;94868.13;20841324;28;20421;-58
2024/01/02 21:02:41;;;;;;;2.22;0.55;;;;;;;19.19;52.71;94851.25;20848813;28;20076;-57
2024/01/02 21:13:04;;;;;;;2.38;0.60;;;;;;;19.24;52.51;94831.22;20823808;28;20395;-57
2024/01/02 21:23:34;;;;;;;1.13;0.50;;;;;;;19.31;52.55;94828.63;20841820;28;20409;-56
2024/01/02 21:33:54;;;;;;;8.57;0.70;;;;;;;19.32;52.17;94811.25;20854028;28;20114;-56
2024/01/02 21:44:36;;;;;;;1.17;0.73;;;;;;;19.27;52.22;94806.22;20861867;28;20393;-56
2024/01/02 21:54:57;;;;;;;2.00;0.70;;;;;;;19.22;52.04;94784.94;20853146;28;20049;-56
2024/01/02 22:05:16;;;;;;;3.65;0.80;;;;;;;19.22;51.86;94777.59;20882023;28;20036;-56
2024/01/02 22:15:36;;;;;;;3.17;0.60;;;;;;;19.20;51.71;94771.03;20853174;28;20048;-56
2024/01/02 22:25:57;;;;;;;1.48;0.70;;;;;;;19.16;51.82;94760.97;20842892;28;20053;-56
2024/01/02 22:36:31;;;;;;;2.50;0.70;;;;;;;19.17;51.90;94740.94;20874759;28;20564;-57
2024/01/02 22:46:50;;;;;;;2.65;0.80;;;;;;;19.16;51.77;94739.38;20860217;28;20061;-56
2024/01/02 22:57:10;;;;;;;0.80;0.70;;;;;;;19.16;51.82;94730.50;20860814;28;20118;-57
2024/01/02 23:07:30;;;;;;;1.08;0.70;;;;;;;19.12;51.65;94719.66;20878711;28;20045;-57
2024/01/02 23:17:50;;;;;;;2.03;0.90;;;;;;;19.06;51.60;94717.69;20857205;28;20049;-59
2024/01/02 23:28:44;;;;;;;1.17;0.70;;;;;;;19.08;51.64;94716.16;20854687;28;20052;-58
2024/01/02 23:39:04;;;;;;;1.67;0.60;;;;;;;19.08;51.76;94716.16;20849242;28;20056;-59
2024/01/02 23:49:24;;;;;;;2.67;0.73;;;;;;;19.04;51.58;94722.69;20876092;28;20053;-56
2024/01/02 23:59:43;;;;;;;3.80;0.57;;;;;;;19.01;51.44;94723.41;20858846;28;20057;-56
